Time;durP1;ratioP1;P1;durP2;ratioP2;P2;SDS_P1;SDS_P2;PMS_P1;PMS_P2;Temp;Humidity;BMP_temperature;BMP_pressure;BME280_temperature;BME280_humidity;BME280_pressure;Samples;Min_cycle;Max_cycle;Signal;HPM_P1;HPM_P2
2021/11/20 00:00:44;;;;;;;;;;;;;;;15.57;73.74;102560.50;1052502;28;690;-63
2021/11/20 00:01:36;;;;;;;;;;;;;;;15.56;73.80;102558.75;1052233;28;764;-63
2021/11/20 00:02:26;;;;;;;;;;;;;;;15.56;74.24;102556.06;1052320;28;815;-62
2021/11/20 00:03:17;;;;;;;;;;;;;;;15.56;73.97;102548.00;1050680;28;1937;-62
2021/11/20 00:04:07;;;;;;;;;;;;;;;15.56;74.11;102549.84;1052280;28;767;-62
2021/11/20 00:04:57;;;;;;;;;;;;;;;15.56;73.99;102548.00;1048739;28;808;-62
2021/11/20 00:05:48;;;;;;;;;;;;;;;15.56;74.02;102545.31;1051009;28;642;-62
2021/11/20 00:06:38;;;;;;;;;;;;;;;15.55;74.02;102540.91;1049734;28;1810;-62
2021/11/20 00:07:29;;;;;;;;;;;;;;;15.55;74.09;102534.63;1048725;28;816;-62
2021/11/20 00:08:19;;;;;;;;;;;;;;;15.55;73.97;102546.28;1049438;28;1835;-62
2021/11/20 00:09:10;;;;;;;;;;;;;;;15.55;73.95;102546.28;1052979;28;774;-62
2021/11/20 00:10:00;;;;;;;;;;;;;;;15.56;73.86;102549.84;1052566;28;610;-62
2021/11/20 00:10:50;;;;;;;;;;;;;;;15.56;74.18;102542.63;1052637;28;858;-62
2021/11/20 00:11:41;;;;;;;;;;;;;;;15.55;73.92;102546.28;1052435;28;619;-62
2021/11/20 00:12:31;;;;;;;;;;;;;;;15.54;74.42;102539.13;1052526;28;925;-62
2021/11/20 00:13:22;;;;;;;;;;;;;;;15.54;74.35;102536.44;1052348;28;771;-62
2021/11/20 00:14:12;;;;;;;;;;;;;;;15.55;74.09;102545.38;1052511;28;661;-62
2021/11/20 00:15:03;;;;;;;;;;;;;;;15.54;73.95;102541.81;1052039;28;855;-62
2021/11/20 00:15:53;;;;;;;;;;;;;;;15.53;74.29;102537.41;1052482;28;751;-62
2021/11/20 00:16:43;;;;;;;;;;;;;;;15.54;74.12;102541.81;1052488;28;852;-62
2021/11/20 00:17:34;;;;;;;;;;;;;;;15.54;73.96;102544.50;1052119;28;1010;-63
2021/11/20 00:18:24;;;;;;;;;;;;;;;15.54;73.92;102549.03;1052110;28;693;-63
2021/11/20 00:19:15;;;;;;;;;;;;;;;15.55;73.96;102540.91;1052378;28;811;-63
2021/11/20 00:20:05;;;;;;;;;;;;;;;15.54;74.07;102544.50;1052422;28;1961;-63
2021/11/20 00:20:56;;;;;;;;;;;;;;;15.55;74.42;102542.69;1052098;28;870;-63
2021/11/20 00:21:46;;;;;;;;;;;;;;;15.54;74.27;102539.13;1052420;28;732;-63
2021/11/20 00:22:36;;;;;;;;;;;;;;;15.54;73.98;102541.81;1052205;28;662;-63
2021/11/20 00:23:27;;;;;;;;;;;;;;;15.54;74.16;102543.66;1048836;28;885;-63
2021/11/20 00:24:17;;;;;;;;;;;;;;;15.54;74.33;102540.97;1048940;28;811;-63
2021/11/20 00:25:08;;;;;;;;;;;;;;;15.54;74.41;102538.28;1048674;28;973;-63
2021/11/20 00:25:59;;;;;;;;;;;;;;;15.54;74.15;102543.66;1048879;28;661;-63
2021/11/20 00:26:50;;;;;;;;;;;;;;;15.54;74.30;102536.44;1052748;28;847;-63
2021/11/20 00:27:40;;;;;;;;;;;;;;;15.55;74.56;102537.31;1052884;28;853;-63
2021/11/20 00:28:40;;;;;;;;;;;;;;;15.53;74.08;102532.03;1053188;28;762;-63
2021/11/20 00:29:57;;;;;;;;;;;;;;;15.54;74.21;102539.13;1052897;28;843;-63
2021/11/20 00:30:57;;;;;;;;;;;;;;;15.53;74.48;102537.41;1052991;28;598;-64
2021/11/20 00:31:47;;;;;;;;;;;;;;;15.53;74.22;102542.78;1051954;28;677;-63
2021/11/20 00:32:38;;;;;;;;;;;;;;;15.52;74.23;102541.03;1052902;28;1467;-63
2021/11/20 00:33:29;;;;;;;;;;;;;;;15.52;74.13;102535.66;1053015;28;832;-63
2021/11/20 00:34:20;;;;;;;;;;;;;;;15.52;74.51;102537.50;1051612;28;685;-63
2021/11/20 00:35:10;;;;;;;;;;;;;;;15.52;74.12;102541.03;1052986;28;1020;-63
2021/11/20 00:36:00;;;;;;;;;;;;;;;15.52;73.96;102534.81;1052993;28;805;-63
2021/11/20 00:36:51;;;;;;;;;;;;;;;15.52;74.23;102529.44;1052919;28;665;-64
2021/11/20 00:37:41;;;;;;;;;;;;;;;15.52;74.46;102535.66;1052917;28;768;-63
2021/11/20 00:38:32;;;;;;;;;;;;;;;15.50;74.44;102532.19;1048668;28;1036;-63
2021/11/20 00:39:22;;;;;;;;;;;;;;;15.52;74.31;102529.44;1048774;28;684;-63
2021/11/20 00:40:13;;;;;;;;;;;;;;;15.52;74.38;102532.13;1048428;28;2004;-63
2021/11/20 00:41:03;;;;;;;;;;;;;;;15.52;74.57;102526.75;1048649;28;789;-63
2021/11/20 00:41:53;;;;;;;;;;;;;;;15.52;74.60;102541.03;1044047;28;905;-63
2021/11/20 00:42:44;;;;;;;;;;;;;;;15.52;74.23;102530.28;1044552;28;2007;-63
2021/11/20 00:43:34;;;;;;;;;;;;;;;15.52;73.98;102534.81;1047787;28;681;-63
2021/11/20 00:44:25;;;;;;;;;;;;;;;15.52;74.31;102532.13;1048492;28;764;-63
2021/11/20 00:45:15;;;;;;;;;;;;;;;15.52;74.36;102530.28;1048850;28;742;-63
2021/11/20 00:46:06;;;;;;;;;;;;;;;15.52;74.57;102534.81;1049268;28;867;-63
2021/11/20 00:46:56;;;;;;;;;;;;;;;15.52;74.46;102524.06;1048733;28;681;-63
2021/11/20 00:47:46;;;;;;;;;;;;;;;15.53;74.43;102525.78;1049304;28;1027;-63
2021/11/20 00:48:37;;;;;;;;;;;;;;;15.51;74.53;102525.88;1049166;28;771;-63
2021/11/20 00:49:27;;;;;;;;;;;;;;;15.51;74.41;102520.50;1049403;28;725;-63
2021/11/20 00:50:18;;;;;;;;;;;;;;;15.52;74.47;102524.06;1049220;28;745;-63
2021/11/20 00:51:08;;;;;;;;;;;;;;;15.51;74.50;102528.56;1044463;28;728;-63
2021/11/20 00:51:59;;;;;;;;;;;;;;;15.51;74.51;102528.56;1044304;28;692;-62
2021/11/20 00:52:49;;;;;;;;;;;;;;;15.51;74.61;102527.69;1049243;28;1360;-62
2021/11/20 00:53:40;;;;;;;;;;;;;;;15.51;74.70;102533.94;1048195;28;694;-62
2021/11/20 00:54:30;;;;;;;;;;;;;;;15.51;74.14;102531.25;1048105;28;827;-63
2021/11/20 00:55:21;;;;;;;;;;;;;;;15.50;74.68;102526.84;1049165;28;728;-62
2021/11/20 00:56:11;;;;;;;;;;;;;;;15.51;74.53;102533.06;1049303;28;750;-62
2021/11/20 00:57:01;;;;;;;;;;;;;;;15.51;74.88;102522.31;1048255;28;799;-62
2021/11/20 00:57:52;;;;;;;;;;;;;;;15.51;74.96;102525.88;1044281;28;653;-63
2021/11/20 00:58:42;;;;;;;;;;;;;;;15.51;74.36;102522.31;1044119;28;723;-63
2021/11/20 00:59:33;;;;;;;;;;;;;;;15.50;74.59;102515.22;1048395;28;874;-63
2021/11/20 01:00:23;;;;;;;;;;;;;;;15.51;74.74;102520.50;1048690;28;771;-62
2021/11/20 01:01:14;;;;;;;;;;;;;;;15.51;74.55;102516.94;1049223;28;769;-63
2021/11/20 01:02:04;;;;;;;;;;;;;;;15.50;74.51;102524.16;1049292;28;841;-62
2021/11/20 01:02:55;;;;;;;;;;;;;;;15.51;75.20;102517.81;1047578;28;1209;-62
2021/11/20 01:03:45;;;;;;;;;;;;;;;15.50;74.37;102521.47;1049266;28;701;-62
2021/11/20 01:04:36;;;;;;;;;;;;;;;15.51;75.02;102522.31;1049464;28;1823;-62
2021/11/20 01:05:26;;;;;;;;;;;;;;;15.50;74.98;102521.47;1050477;28;2510;-63
2021/11/20 01:06:17;;;;;;;;;;;;;;;15.51;74.78;102520.50;1047811;28;744;-62
2021/11/20 01:07:07;;;;;;;;;;;;;;;15.51;74.39;102514.25;1048132;28;944;-62
2021/11/20 01:07:58;;;;;;;;;;;;;;;15.50;74.67;102512.53;1048360;28;675;-62
2021/11/20 01:08:48;;;;;;;;;;;;;;;15.51;74.51;102511.56;1048172;28;618;-62
2021/11/20 01:09:38;;;;;;;;;;;;;;;15.49;74.80;102517.03;1048294;28;710;-62
2021/11/20 01:10:29;;;;;;;;;;;;;;;15.49;74.64;102511.66;1048011;28;829;-62
2021/11/20 01:11:19;;;;;;;;;;;;;;;15.49;74.63;102514.34;1049070;28;967;-62
2021/11/20 01:12:10;;;;;;;;;;;;;;;15.49;74.80;102510.78;1049516;28;790;-62
2021/11/20 01:13:00;;;;;;;;;;;;;;;15.49;74.95;102514.34;1049019;28;972;-62
2021/11/20 01:13:51;;;;;;;;;;;;;;;15.48;74.48;102518.00;1049199;28;630;-62
2021/11/20 01:14:41;;;;;;;;;;;;;;;15.49;74.62;102525.09;1049009;28;642;-62
2021/11/20 01:15:31;;;;;;;;;;;;;;;15.48;74.36;102523.38;1049163;28;885;-62
2021/11/20 01:16:22;;;;;;;;;;;;;;;15.47;74.96;102518.94;1049011;28;742;-62
2021/11/20 01:17:12;;;;;;;;;;;;;;;15.48;74.58;102517.13;1048534;28;867;-62
2021/11/20 01:18:03;;;;;;;;;;;;;;;15.48;74.65;102520.69;1048887;28;728;-63
2021/11/20 01:18:53;;;;;;;;;;;;;;;15.49;74.35;102516.16;1048968;28;660;-63
2021/11/20 01:19:43;;;;;;;;;;;;;;;15.48;74.44;102514.44;1049083;28;798;-63
2021/11/20 01:20:34;;;;;;;;;;;;;;;15.47;74.50;102510.88;1049859;28;701;-62
2021/11/20 01:21:24;;;;;;;;;;;;;;;15.48;74.77;102511.75;1049091;28;823;-62
2021/11/20 01:22:15;;;;;;;;;;;;;;;15.48;74.70;102506.38;1049858;28;2007;-63
2021/11/20 01:23:05;;;;;;;;;;;;;;;15.48;74.53;102507.25;1048983;28;809;-62
2021/11/20 01:23:56;;;;;;;;;;;;;;;15.48;74.58;102509.06;1049282;28;1023;-63
2021/11/20 01:24:46;;;;;;;;;;;;;;;15.48;74.65;102506.38;1048879;28;658;-62
2021/11/20 01:25:37;;;;;;;;;;;;;;;15.47;74.40;102500.13;1048980;28;737;-63
2021/11/20 01:26:27;;;;;;;;;;;;;;;15.47;75.02;102507.34;1048603;28;606;-62
2021/11/20 01:27:17;;;;;;;;;;;;;;;15.46;75.05;102509.16;1049004;28;771;-63
2021/11/20 01:28:08;;;;;;;;;;;;;;;15.48;74.50;102518.00;1048474;28;813;-62
2021/11/20 01:28:58;;;;;;;;;;;;;;;15.46;74.75;102519.91;1045339;28;712;-62
2021/11/20 01:29:49;;;;;;;;;;;;;;;15.47;74.87;102513.56;1048641;28;843;-63
2021/11/20 01:30:39;;;;;;;;;;;;;;;15.46;74.57;102514.53;1048835;28;666;-63
2021/11/20 01:31:30;;;;;;;;;;;;;;;15.46;74.78;102502.91;1048981;28;681;-63
2021/11/20 01:32:20;;;;;;;;;;;;;;;15.45;74.72;102502.03;1048803;28;619;-63
2021/11/20 01:33:10;;;;;;;;;;;;;;;15.45;75.30;102502.03;1048961;28;716;-63
2021/11/20 01:34:01;;;;;;;;;;;;;;;15.45;74.78;102499.34;1048737;28;846;-63
2021/11/20 01:34:51;;;;;;;;;;;;;;;15.46;74.81;102495.72;1048936;28;758;-63
2021/11/20 01:35:42;;;;;;;;;;;;;;;15.45;74.59;102496.66;1049046;28;724;-63
2021/11/20 01:36:32;;;;;;;;;;;;;;;15.46;74.61;102494.84;1048824;28;642;-63
2021/11/20 01:37:22;;;;;;;;;;;;;;;15.46;74.76;102494.84;1049081;28;681;-63
2021/11/20 01:38:13;;;;;;;;;;;;;;;15.47;75.02;102500.13;1048722;28;924;-61
2021/11/20 01:39:03;;;;;;;;;;;;;;;15.44;74.51;102508.38;1049004;28;744;-61
2021/11/20 01:39:54;;;;;;;;;;;;;;;15.46;74.76;102513.66;1049010;28;1957;-61
2021/11/20 01:40:44;;;;;;;;;;;;;;;15.46;75.11;102505.59;1048902;28;1065;-61
2021/11/20 01:41:34;;;;;;;;;;;;;;;15.45;74.86;102507.41;1048974;28;634;-61
2021/11/20 01:42:25;;;;;;;;;;;;;;;15.45;74.97;102506.56;1048717;28;774;-61
2021/11/20 01:43:16;;;;;;;;;;;;;;;15.44;75.13;102494.94;1053205;28;1851;-61
2021/11/20 01:44:06;;;;;;;;;;;;;;;15.45;74.90;102495.81;1052855;28;766;-61
2021/11/20 01:44:56;;;;;;;;;;;;;;;15.44;74.85;102494.94;1052996;28;634;-61
2021/11/20 01:45:47;;;;;;;;;;;;;;;15.45;75.03;102491.31;1052515;28;614;-61
2021/11/20 01:46:37;;;;;;;;;;;;;;;15.44;74.82;102491.38;1049811;28;1735;-61
2021/11/20 01:47:28;;;;;;;;;;;;;;;15.45;74.75;102495.81;1049561;28;696;-61
2021/11/20 01:48:18;;;;;;;;;;;;;;;15.45;75.16;102487.75;1049330;28;630;-61
2021/11/20 01:49:09;;;;;;;;;;;;;;;15.44;74.97;102489.56;1049540;28;650;-61
2021/11/20 01:50:00;;;;;;;;;;;;;;;15.43;74.79;102487.84;1048808;28;679;-61
2021/11/20 01:50:51;;;;;;;;;;;;;;;15.44;74.69;102494.94;1052451;28;833;-61
2021/11/20 01:51:41;;;;;;;;;;;;;;;15.44;75.28;102484.19;1053707;28;704;-61
2021/11/20 01:52:32;;;;;;;;;;;;;;;15.44;74.68;102484.19;1053763;28;1427;-61
2021/11/20 01:53:22;;;;;;;;;;;;;;;15.44;75.17;102488.69;1053475;28;681;-61
2021/11/20 01:54:13;;;;;;;;;;;;;;;15.44;74.96;102488.69;1053652;28;661;-61
2021/11/20 01:55:03;;;;;;;;;;;;;;;15.43;74.99;102487.84;1052303;28;824;-63
2021/11/20 01:55:53;;;;;;;;;;;;;;;15.43;75.20;102481.59;1053740;28;709;-63
2021/11/20 01:56:44;;;;;;;;;;;;;;;15.43;75.01;102487.84;1053587;28;688;-62
2021/11/20 01:57:35;;;;;;;;;;;;;;;15.43;75.30;102485.16;1053603;28;661;-62
2021/11/20 01:58:25;;;;;;;;;;;;;;;15.44;75.21;102494.06;1053504;28;684;-63
2021/11/20 01:59:15;;;;;;;;;;;;;;;15.43;74.86;102493.22;1053559;28;840;-63
2021/11/20 02:00:06;;;;;;;;;;;;;;;15.44;75.18;102486.88;1053396;28;1906;-63
2021/11/20 02:00:56;;;;;;;;;;;;;;;15.44;74.62;102489.56;1053607;28;881;-63
2021/11/20 02:01:47;;;;;;;;;;;;;;;15.44;74.92;102489.56;1053492;28;670;-63
2021/11/20 02:02:37;;;;;;;;;;;;;;;15.44;75.00;102486.88;1053440;28;1011;-62
2021/11/20 02:03:28;;;;;;;;;;;;;;;15.44;74.76;102492.25;1053656;28;763;-63
2021/11/20 02:04:18;;;;;;;;;;;;;;;15.43;74.89;102487.84;1052548;28;685;-63
2021/11/20 02:05:11;;;;;;;;;;;;;;;15.44;74.89;102489.56;1053304;28;837;-63
2021/11/20 02:06:01;;;;;;;;;;;;;;;15.43;75.21;102485.16;1052415;28;645;-62
2021/11/20 02:06:52;;;;;;;;;;;;;;;15.43;75.03;102484.28;1053776;28;692;-62
2021/11/20 02:07:42;;;;;;;;;;;;;;;15.43;75.12;102484.28;1053512;28;755;-62
2021/11/20 02:08:32;;;;;;;;;;;;;;;15.42;75.21;102480.72;1053762;28;801;-62
2021/11/20 02:09:23;;;;;;;;;;;;;;;15.43;74.78;102474.41;1053478;28;741;-62
2021/11/20 02:10:13;;;;;;;;;;;;;;;15.43;75.28;102473.53;1053655;28;741;-62
2021/11/20 02:11:04;;;;;;;;;;;;;;;15.42;75.31;102479.88;1053152;28;1956;-62
2021/11/20 02:11:54;;;;;;;;;;;;;;;15.42;74.92;102480.72;1052653;28;669;-62
2021/11/20 02:12:44;;;;;;;;;;;;;;;15.43;75.17;102489.66;1052980;28;693;-62
2021/11/20 02:13:35;;;;;;;;;;;;;;;15.43;75.30;102481.59;1052576;28;921;-62
2021/11/20 02:14:25;;;;;;;;;;;;;;;15.43;75.43;102487.84;1052864;28;710;-62
2021/11/20 02:15:16;;;;;;;;;;;;;;;15.42;75.71;102486.09;1052647;28;785;-62
2021/11/20 02:16:06;;;;;;;;;;;;;;;15.42;75.26;102488.78;1052857;28;781;-62
2021/11/20 02:16:57;;;;;;;;;;;;;;;15.42;75.42;102488.78;1052919;28;717;-62
2021/11/20 02:17:47;;;;;;;;;;;;;;;15.41;74.86;102484.38;1052632;28;1002;-62
2021/11/20 02:18:37;;;;;;;;;;;;;;;15.42;75.23;102483.41;1052966;28;661;-62
2021/11/20 02:19:28;;;;;;;;;;;;;;;15.42;75.26;102480.72;1052653;28;801;-62
2021/11/20 02:20:18;;;;;;;;;;;;;;;15.41;75.26;102481.69;1052970;28;797;-62
2021/11/20 02:21:09;;;;;;;;;;;;;;;15.41;75.26;102480.81;1053498;28;754;-62
2021/11/20 02:21:59;;;;;;;;;;;;;;;15.40;75.27;102477.28;1052677;28;883;-61
2021/11/20 02:22:51;;;;;;;;;;;;;;;15.40;74.79;102474.59;1052975;28;755;-62
2021/11/20 02:23:42;;;;;;;;;;;;;;;15.41;75.03;102470.06;1052783;28;767;-61
2021/11/20 02:24:32;;;;;;;;;;;;;;;15.41;75.19;102464.69;1052843;28;654;-62
2021/11/20 02:25:23;;;;;;;;;;;;;;;15.41;75.36;102467.38;1053057;28;730;-62
2021/11/20 02:26:13;;;;;;;;;;;;;;;15.40;75.59;102466.56;1052725;28;851;-62
2021/11/20 02:27:03;;;;;;;;;;;;;;;15.40;75.36;102466.56;1053045;28;731;-62
2021/11/20 02:27:54;;;;;;;;;;;;;;;15.41;75.65;102470.94;1052698;28;631;-64
2021/11/20 02:28:44;;;;;;;;;;;;;;;15.41;75.21;102462.00;1052875;28;637;-63
2021/11/20 02:29:35;;;;;;;;;;;;;;;15.41;75.29;102468.25;1053184;28;686;-63
2021/11/20 02:30:25;;;;;;;;;;;;;;;15.41;75.52;102467.38;1052858;28;726;-62
2021/11/20 02:31:16;;;;;;;;;;;;;;;15.41;75.52;102467.38;1053143;28;709;-62
2021/11/20 02:32:07;;;;;;;;;;;;;;;15.40;74.99;102469.25;1053220;28;788;-62
2021/11/20 02:32:57;;;;;;;;;;;;;;;15.41;75.40;102467.38;1052650;28;1009;-63
2021/11/20 02:33:47;;;;;;;;;;;;;;;15.40;75.60;102455.81;1052993;28;677;-63
2021/11/20 02:34:38;;;;;;;;;;;;;;;15.41;75.29;102462.00;1052663;28;775;-63
2021/11/20 02:35:28;;;;;;;;;;;;;;;15.40;75.27;102466.56;1052959;28;772;-63
2021/11/20 02:36:19;;;;;;;;;;;;;;;15.40;75.26;102458.50;1053141;28;743;-63
2021/11/20 02:37:10;;;;;;;;;;;;;;;15.41;75.74;102464.69;1052778;28;808;-63
2021/11/20 02:38:01;;;;;;;;;;;;;;;15.42;75.17;102461.06;1048909;28;732;-63
2021/11/20 02:38:51;;;;;;;;;;;;;;;15.41;75.91;102467.38;1048419;28;975;-63
2021/11/20 02:39:42;;;;;;;;;;;;;;;15.40;75.47;102458.50;1052462;28;1893;-63
2021/11/20 02:40:32;;;;;;;;;;;;;;;15.40;75.05;102461.19;1052775;28;698;-63
2021/11/20 02:41:22;;;;;;;;;;;;;;;15.40;75.37;102455.81;1052863;28;799;-62
2021/11/20 02:42:13;;;;;;;;;;;;;;;15.40;75.38;102460.31;1053099;28;796;-62
2021/11/20 02:43:03;;;;;;;;;;;;;;;15.41;75.74;102451.25;1052815;28;724;-62
2021/11/20 02:43:54;;;;;;;;;;;;;;;15.40;75.54;102453.13;1052952;28;641;-62
2021/11/20 02:44:45;;;;;;;;;;;;;;;15.39;75.52;102448.69;1052788;28;602;-62
2021/11/20 02:45:35;;;;;;;;;;;;;;;15.40;75.24;102452.25;1052792;28;582;-63
2021/11/20 02:46:26;;;;;;;;;;;;;;;15.39;75.26;102447.84;1050773;28;1567;-63
2021/11/20 02:47:16;;;;;;;;;;;;;;;15.40;75.17;102454.94;1049056;28;888;-63
2021/11/20 02:48:06;;;;;;;;;;;;;;;15.38;75.34;102452.34;1049272;28;751;-63
2021/11/20 02:48:57;;;;;;;;;;;;;;;15.39;75.34;102456.75;1049120;28;866;-63
2021/11/20 02:49:47;;;;;;;;;;;;;;;15.39;75.17;102451.38;1049197;28;637;-63
2021/11/20 02:50:38;;;;;;;;;;;;;;;15.38;75.49;102446.97;1049412;28;626;-63
2021/11/20 02:51:28;;;;;;;;;;;;;;;15.38;75.42;102452.34;1049140;28;782;-63
2021/11/20 02:52:19;;;;;;;;;;;;;;;15.38;75.40;102451.47;1048591;28;1228;-63
2021/11/20 02:53:09;;;;;;;;;;;;;;;15.38;75.61;102455.03;1048589;28;755;-63
2021/11/20 02:53:59;;;;;;;;;;;;;;;15.37;75.37;102450.59;1048989;28;725;-63
2021/11/20 02:54:50;;;;;;;;;;;;;;;15.38;75.42;102455.03;1048498;28;642;-63
2021/11/20 02:55:40;;;;;;;;;;;;;;;15.38;75.51;102446.97;1048435;28;1151;-63
2021/11/20 02:56:31;;;;;;;;;;;;;;;15.37;75.44;102450.59;1048871;28;614;-63
2021/11/20 02:57:21;;;;;;;;;;;;;;;15.38;75.26;102446.97;1048441;28;840;-62
2021/11/20 02:58:11;;;;;;;;;;;;;;;15.38;75.81;102446.09;1048909;28;779;-63
2021/11/20 02:59:02;;;;;;;;;;;;;;;15.36;75.41;102440.81;1049014;28;1953;-63
2021/11/20 02:59:52;;;;;;;;;;;;;;;15.37;75.04;102444.38;1048559;28;1961;-63
2021/11/20 03:00:43;;;;;;;;;;;;;;;15.37;75.45;102436.31;1048951;28;688;-63
2021/11/20 03:01:35;;;;;;;;;;;;;;;15.36;75.64;102438.13;1049128;28;923;-63
2021/11/20 03:02:25;;;;;;;;;;;;;;;15.37;75.48;102433.63;1047483;28;736;-63
2021/11/20 03:03:15;;;;;;;;;;;;;;;15.35;75.58;102431.03;1049072;28;1398;-63
2021/11/20 03:04:06;;;;;;;;;;;;;;;15.37;75.33;102439.88;1049050;28;947;-63
2021/11/20 03:04:56;;;;;;;;;;;;;;;15.37;75.50;102433.63;1048589;28;801;-63
2021/11/20 03:05:47;;;;;;;;;;;;;;;15.36;75.20;102440.81;1048774;28;758;-63
2021/11/20 03:06:37;;;;;;;;;;;;;;;15.36;75.63;102429.22;1049121;28;716;-62
2021/11/20 03:07:27;;;;;;;;;;;;;;;15.36;75.79;102435.44;1049214;28;815;-62
2021/11/20 03:08:18;;;;;;;;;;;;;;;15.36;75.15;102435.44;1049183;28;785;-62
2021/11/20 03:09:08;;;;;;;;;;;;;;;15.37;75.60;102436.31;1048568;28;751;-62
2021/11/20 03:09:59;;;;;;;;;;;;;;;15.36;75.64;102432.75;1048796;28;948;-62
2021/11/20 03:10:49;;;;;;;;;;;;;;;15.36;75.27;102432.75;1048585;28;614;-62
2021/11/20 03:11:39;;;;;;;;;;;;;;;15.36;75.25;102438.13;1049196;28;736;-63
2021/11/20 03:12:30;;;;;;;;;;;;;;;15.36;75.28;102434.59;1048993;28;790;-63
2021/11/20 03:13:20;;;;;;;;;;;;;;;15.36;75.80;102435.44;1048646;28;766;-63
2021/11/20 03:14:11;;;;;;;;;;;;;;;15.35;75.28;102431.03;1049207;28;859;-63
2021/11/20 03:15:01;;;;;;;;;;;;;;;15.36;75.59;102435.44;1049076;28;762;-63
2021/11/20 03:15:52;;;;;;;;;;;;;;;15.37;75.46;102429.13;1048712;28;701;-63
2021/11/20 03:16:42;;;;;;;;;;;;;;;15.36;75.93;102430.06;1049017;28;717;-63
2021/11/20 03:17:32;;;;;;;;;;;;;;;15.36;75.74;102423.84;1048608;28;1318;-63
2021/11/20 03:18:23;;;;;;;;;;;;;;;15.35;75.94;102422.09;1048826;28;735;-63
2021/11/20 03:19:13;;;;;;;;;;;;;;;15.35;75.76;102424.78;1051159;28;1887;-63
2021/11/20 03:20:04;;;;;;;;;;;;;;;15.36;75.43;102422.00;1052512;28;1901;-63
2021/11/20 03:20:54;;;;;;;;;;;;;;;15.36;75.33;102421.16;1052255;28;2088;-63
2021/11/20 03:21:44;;;;;;;;;;;;;;;15.35;75.75;102425.66;1049224;28;730;-62
2021/11/20 03:22:35;;;;;;;;;;;;;;;15.35;75.35;102425.66;1048843;28;851;-62
2021/11/20 03:23:25;;;;;;;;;;;;;;;15.34;75.46;102418.56;1049077;28;670;-63
2021/11/20 03:24:16;;;;;;;;;;;;;;;15.34;75.55;102423.06;1049136;28;633;-62
2021/11/20 03:25:06;;;;;;;;;;;;;;;15.34;75.24;102418.56;1048997;28;637;-62
2021/11/20 03:25:57;;;;;;;;;;;;;;;15.35;75.68;102417.59;1049187;28;690;-62
2021/11/20 03:26:47;;;;;;;;;;;;;;;15.34;75.76;102413.19;1049007;28;840;-62
2021/11/20 03:27:37;;;;;;;;;;;;;;;15.34;75.21;102423.91;1049117;28;650;-62
2021/11/20 03:28:28;;;;;;;;;;;;;;;15.34;75.81;102418.56;1048923;28;712;-62
2021/11/20 03:29:18;;;;;;;;;;;;;;;15.34;75.53;102412.31;1049053;28;683;-62
2021/11/20 03:30:09;;;;;;;;;;;;;;;15.34;75.60;102415.00;1049160;28;725;-62
2021/11/20 03:30:59;;;;;;;;;;;;;;;15.34;75.39;102418.56;1048920;28;699;-62
2021/11/20 03:31:52;;;;;;;;;;;;;;;15.34;75.58;102409.63;1043598;28;647;-62
2021/11/20 03:32:43;;;;;;;;;;;;;;;15.34;75.72;102413.19;1044389;28;1453;-62
2021/11/20 03:33:33;;;;;;;;;;;;;;;15.33;75.71;102418.63;1048870;28;705;-64
2021/11/20 03:34:23;;;;;;;;;;;;;;;15.33;75.19;102410.59;1049082;28;661;-65
2021/11/20 03:35:14;;;;;;;;;;;;;;;15.33;75.61;102413.28;1048744;28;924;-65
2021/11/20 03:36:04;;;;;;;;;;;;;;;15.33;75.59;102411.44;1049086;28;614;-65
2021/11/20 03:36:55;;;;;;;;;;;;;;;15.33;75.80;102410.59;1049483;28;981;-63
2021/11/20 03:37:46;;;;;;;;;;;;;;;15.32;75.79;102404.34;1049009;28;669;-64
2021/11/20 03:38:36;;;;;;;;;;;;;;;15.33;75.37;102411.44;1047338;28;615;-64
2021/11/20 03:39:27;;;;;;;;;;;;;;;15.32;75.24;102408.84;1048766;28;864;-64
2021/11/20 03:40:17;;;;;;;;;;;;;;;15.32;75.32;102415.09;1048674;28;1953;-63
2021/11/20 03:41:07;;;;;;;;;;;;;;;15.32;75.25;102412.41;1048997;28;837;-63
2021/11/20 03:41:58;;;;;;;;;;;;;;;15.32;75.68;102409.72;1043626;28;724;-63
2021/11/20 03:42:48;;;;;;;;;;;;;;;15.33;75.49;102405.22;1044989;28;620;-63
2021/11/20 03:43:39;;;;;;;;;;;;;;;15.31;75.14;102408.00;1048470;28;916;-63
2021/11/20 03:44:29;;;;;;;;;;;;;;;15.32;75.49;102404.34;1048882;28;624;-63
2021/11/20 03:45:20;;;;;;;;;;;;;;;15.32;75.96;102404.34;1048999;28;843;-63
2021/11/20 03:46:10;;;;;;;;;;;;;;;15.32;75.89;102408.84;1048901;28;661;-63
2021/11/20 03:47:00;;;;;;;;;;;;;;;15.31;75.86;102405.31;1049057;28;788;-63
2021/11/20 03:47:51;;;;;;;;;;;;;;;15.31;75.70;102408.00;1049095;28;889;-63
2021/11/20 03:48:41;;;;;;;;;;;;;;;15.32;75.92;102408.84;1048282;28;713;-63
2021/11/20 03:49:32;;;;;;;;;;;;;;;15.31;76.00;102402.63;1048580;28;907;-63
2021/11/20 03:50:22;;;;;;;;;;;;;;;15.32;75.55;102404.34;1048879;28;759;-63
2021/11/20 03:51:12;;;;;;;;;;;;;;;15.31;75.62;102405.31;1048709;28;795;-63
2021/11/20 03:52:03;;;;;;;;;;;;;;;15.32;75.74;102398.97;1047885;28;679;-62
2021/11/20 03:52:53;;;;;;;;;;;;;;;15.31;75.78;102397.25;1047862;28;610;-62
2021/11/20 03:53:44;;;;;;;;;;;;;;;15.32;75.58;102398.97;1049063;28;855;-62
2021/11/20 03:54:34;;;;;;;;;;;;;;;15.31;75.71;102397.25;1048802;28;717;-62
2021/11/20 03:55:25;;;;;;;;;;;;;;;15.31;75.72;102401.75;1048515;28;799;-62
2021/11/20 03:56:15;;;;;;;;;;;;;;;15.31;75.50;102399.94;1048262;28;864;-62
2021/11/20 03:57:05;;;;;;;;;;;;;;;15.29;75.83;102397.34;1048471;28;727;-62
2021/11/20 03:57:56;;;;;;;;;;;;;;;15.30;75.63;102395.50;1048617;28;956;-62
2021/11/20 03:58:46;;;;;;;;;;;;;;;15.30;75.70;102400.88;1048334;28;804;-62
2021/11/20 03:59:37;;;;;;;;;;;;;;;15.31;75.73;102397.25;1048805;28;653;-62
2021/11/20 04:00:27;;;;;;;;;;;;;;;15.30;75.35;102403.56;1047331;28;852;-62
2021/11/20 04:01:17;;;;;;;;;;;;;;;15.29;75.34;102399.16;1047991;28;918;-62
2021/11/20 04:02:08;;;;;;;;;;;;;;;15.30;75.43;102395.50;1048758;28;879;-62
2021/11/20 04:02:58;;;;;;;;;;;;;;;15.29;75.57;102397.34;1048070;28;1303;-63
2021/11/20 04:03:49;;;;;;;;;;;;;;;15.30;75.71;102400.88;1048568;28;642;-61
2021/11/20 04:04:39;;;;;;;;;;;;;;;15.29;75.80;102397.34;1048658;28;883;-62
2021/11/20 04:05:32;;;;;;;;;;;;;;;15.30;75.80;102398.19;1048525;28;787;-62
2021/11/20 04:06:22;;;;;;;;;;;;;;;15.29;75.81;102396.47;1048852;28;775;-62
2021/11/20 04:07:13;;;;;;;;;;;;;;;15.29;76.08;102391.97;1048555;28;732;-62
2021/11/20 04:08:03;;;;;;;;;;;;;;;15.28;75.86;102387.53;1051157;28;1826;-62
2021/11/20 04:08:53;;;;;;;;;;;;;;;15.28;75.31;102390.22;1052266;28;704;-62
2021/11/20 04:09:44;;;;;;;;;;;;;;;15.29;75.58;102391.09;1052082;28;607;-62
2021/11/20 04:10:34;;;;;;;;;;;;;;;15.29;75.21;102393.78;1051612;28;785;-62
2021/11/20 04:11:25;;;;;;;;;;;;;;;15.28;75.66;102395.59;1052453;28;804;-62
2021/11/20 04:12:15;;;;;;;;;;;;;;;15.28;75.66;102386.69;1052086;28;817;-62
2021/11/20 04:13:06;;;;;;;;;;;;;;;15.28;75.76;102392.91;1051910;28;797;-62
2021/11/20 04:13:56;;;;;;;;;;;;;;;15.29;75.55;102399.16;1052349;28;574;-62
2021/11/20 04:14:46;;;;;;;;;;;;;;;15.28;76.14;102394.72;1052304;28;835;-62
2021/11/20 04:15:37;;;;;;;;;;;;;;;15.28;75.78;102403.66;1052384;28;669;-62
2021/11/20 04:16:27;;;;;;;;;;;;;;;15.28;75.61;102403.66;1048966;28;1886;-62
2021/11/20 04:17:18;;;;;;;;;;;;;;;15.29;75.68;102396.47;1047723;28;781;-62
2021/11/20 04:18:09;;;;;;;;;;;;;;;15.28;75.65;102400.09;1048772;28;786;-62
2021/11/20 04:18:59;;;;;;;;;;;;;;;15.28;75.49;102397.41;1048789;28;872;-62
2021/11/20 04:19:50;;;;;;;;;;;;;;;15.27;75.91;102396.56;1048882;28;719;-62
2021/11/20 04:20:41;;;;;;;;;;;;;;;15.27;75.73;102391.19;1048835;28;617;-62
2021/11/20 04:21:31;;;;;;;;;;;;;;;15.27;75.75;102401.94;1047288;28;681;-62
2021/11/20 04:22:22;;;;;;;;;;;;;;;15.28;75.86;102398.28;1048851;28;813;-62
2021/11/20 04:23:12;;;;;;;;;;;;;;;15.27;75.56;102393.00;1048838;28;937;-62
2021/11/20 04:24:03;;;;;;;;;;;;;;;15.27;75.95;102395.69;1048916;28;716;-62
2021/11/20 04:24:53;;;;;;;;;;;;;;;15.28;75.80;102402.78;1048770;28;903;-62
2021/11/20 04:25:44;;;;;;;;;;;;;;;15.27;75.53;102393.00;1048911;28;692;-62
2021/11/20 04:26:34;;;;;;;;;;;;;;;15.27;75.45;102396.56;1043528;28;674;-62